Time;durP1;ratioP1;P1;durP2;ratioP2;P2;SDS_P1;SDS_P2;PMS_P1;PMS_P2;Temp;Humidity;BMP_temperature;BMP_pressure;BME280_temperature;BME280_humidity;BME280_pressure;Samples;Min_cycle;Max_cycle;Signal;HPM_P1;HPM_P2
2022/11/30 00:01:32;;;;;;;55.05;25.92;;;6.10;99.90;;;;;;5097968;27;20535;-79
2022/11/30 00:03:58;;;;;;;39.70;21.17;;;6.10;99.90;;;;;;5115037;27;20188;-80
2022/11/30 00:06:24;;;;;;;51.83;24.88;;;7.20;99.90;;;;;;5114522;27;20092;-79
2022/11/30 00:08:53;;;;;;;;;;;5.60;99.90;;;;;;5115506;27;20155;-79
2022/11/30 00:11:21;;;;;;;38.22;19.58;;;5.40;99.90;;;;;;5114879;27;19920;-79
2022/11/30 00:13:47;;;;;;;50.72;22.02;;;5.30;99.90;;;;;;5115069;27;20043;-79
2022/11/30 00:16:13;;;;;;;522.58;23.33;;;5.60;99.90;;;;;;5114851;27;20078;-80
2022/11/30 00:18:39;;;;;;;213.15;16.10;;;5.20;99.90;;;;;;5114573;27;20507;-79
2022/11/30 00:21:07;;;;;;;229.02;15.23;;;5.30;99.90;;;;;;5114820;28;20043;-78
2022/11/30 00:23:36;;;;;;;157.07;13.00;;;6.40;99.90;;;;;;5132658;27;20525;-80
2022/11/30 00:26:03;;;;;;;344.75;18.45;;;5.20;99.90;;;;;;5098154;27;20398;-79
2022/11/30 00:28:31;;;;;;;152.90;14.55;;;5.00;99.90;;;;;;5114781;27;20123;-80
2022/11/30 00:30:58;;;;;;;135.40;13.25;;;4.70;99.90;;;;;;5132419;27;20059;-80
2022/11/30 00:33:24;;;;;;;265.70;16.63;;;5.50;99.90;;;;;;5132795;27;20510;-80
2022/11/30 00:36:00;;;;;;;60.70;11.50;;;6.20;99.90;;;;;;5114377;28;20043;-79
2022/11/30 00:38:25;;;;;;;21.23;10.43;;;5.50;99.90;;;;;;5097566;28;20103;-79
2022/11/30 00:40:51;;;;;;;47.25;14.00;;;5.50;99.90;;;;;;5114270;28;20090;-79
2022/11/30 00:43:17;;;;;;;232.32;17.35;;;6.70;99.90;;;;;;5114515;28;20391;-79
2022/11/30 00:45:43;;;;;;;88.82;15.88;;;3.40;99.90;;;;;;5114720;28;20051;-81
2022/11/30 00:48:08;;;;;;;47.22;14.82;;;5.40;99.90;;;;;;5114094;28;20094;-82
2022/11/30 00:50:34;;;;;;;49.40;17.20;;;6.80;99.90;;;;;;5132933;28;20039;-80
2022/11/30 00:53:00;;;;;;;42.53;20.00;;;6.50;99.90;;;;;;5114518;28;20043;-79
2022/11/30 00:55:26;;;;;;;27.90;15.18;;;5.60;99.90;;;;;;5114451;28;20084;-79
2022/11/30 00:57:52;;;;;;;25.73;14.55;;;5.80;99.90;;;;;;5114667;28;20044;-79
2022/11/30 01:00:18;;;;;;;24.60;14.00;;;5.70;99.90;;;;;;5114531;28;20425;-79
2022/11/30 01:02:44;;;;;;;27.70;14.05;;;5.70;99.90;;;;;;5114289;28;20091;-78
2022/11/30 01:05:10;;;;;;;45.67;20.65;;;7.00;99.90;;;;;;5114278;28;20570;-78
2022/11/30 01:07:36;;;;;;;55.45;20.98;;;6.10;99.90;;;;;;5114387;28;20122;-79
2022/11/30 01:10:01;;;;;;;50.72;21.98;;;6.00;99.90;;;;;;5132584;27;20126;-79
2022/11/30 01:12:27;;;;;;;45.88;20.45;;;7.00;99.90;;;;;;5132742;28;20042;-79
2022/11/30 01:14:53;;;;;;;47.08;21.58;;;6.60;99.90;;;;;;5132722;28;20051;-80
2022/11/30 01:17:19;;;;;;;46.08;21.08;;;6.00;99.90;;;;;;5132586;28;20073;-80
2022/11/30 01:19:44;;;;;;;56.33;23.25;;;7.10;99.90;;;;;;5114550;28;20126;-80
2022/11/30 01:22:10;;;;;;;53.80;24.23;;;6.20;99.90;;;;;;5132769;28;20046;-80
2022/11/30 01:24:36;;;;;;;59.75;24.58;;;7.20;99.90;;;;;;5132681;28;20043;-80
2022/11/30 01:27:01;;;;;;;59.60;25.23;;;6.70;99.90;;;;;;5132598;28;20051;-80
2022/11/30 01:29:27;;;;;;;61.92;25.02;;;5.90;99.90;;;;;;5132238;27;20059;-80
2022/11/30 01:31:53;;;;;;;65.00;25.88;;;6.60;99.90;;;;;;5114114;28;20055;-79
2022/11/30 01:34:19;;;;;;;67.85;26.67;;;6.40;99.90;;;;;;5132612;27;20043;-81
2022/11/30 01:36:47;;;;;;;51.10;23.42;;;6.10;99.90;;;;;;5114550;28;20482;-80
2022/11/30 01:39:13;;;;;;;52.70;26.40;;;6.40;99.90;;;;;;5114533;28;20254;-79
2022/11/30 01:41:39;;;;;;;56.97;25.30;;;6.50;99.90;;;;;;5114268;28;20055;-80
2022/11/30 01:44:05;;;;;;;53.05;25.58;;;6.30;99.90;;;;;;5132421;27;20047;-80
2022/11/30 01:46:45;;;;;;;54.50;25.65;;;7.50;99.90;;;;;;5132134;27;20103;-79
2022/11/30 01:49:19;;;;;;;61.75;24.60;;;6.60;99.90;;;;;;5097084;28;20130;-80
2022/11/30 01:51:50;;;;;;;50.67;25.10;;;6.40;99.90;;;;;;5132535;27;20043;-80
2022/11/30 01:54:21;;;;;;;55.10;26.77;;;7.80;99.90;;;;;;5117805;27;20087;-80
2022/11/30 01:56:55;;;;;;;56.08;25.40;;;6.30;99.90;;;;;;5135991;27;20054;-80
2022/11/30 01:59:22;;;;;;;56.72;25.60;;;6.50;99.90;;;;;;5117542;27;20126;-80
2022/11/30 02:01:48;;;;;;;52.40;25.02;;;6.60;99.90;;;;;;5135502;27;20099;-80
2022/11/30 02:04:28;;;;;;;55.47;25.90;;;6.60;99.90;;;;;;5117638;27;20055;-80
2022/11/30 02:06:56;;;;;;;53.85;25.73;;;6.40;99.90;;;;;;5135733;27;20151;-81
2022/11/30 02:09:23;;;;;;;57.03;26.15;;;7.70;99.90;;;;;;5117249;27;20552;-81
2022/11/30 02:11:49;;;;;;;65.22;26.52;;;7.50;99.90;;;;;;5117368;27;20051;-80
2022/11/30 02:14:30;;;;;;;66.55;28.50;;;6.60;99.90;;;;;;5135578;27;20051;-80
2022/11/30 02:16:58;;;;;;;70.25;27.00;;;6.60;99.90;;;;;;5135216;27;20103;-79
2022/11/30 02:19:36;;;;;;;63.20;27.05;;;6.40;99.90;;;;;;5116927;27;20103;-80
2022/11/30 02:22:19;;;;;;;67.53;27.38;;;6.40;99.90;;;;;;5135437;27;20059;-81
2022/11/30 02:25:12;;;;;;;59.95;27.88;;;6.80;99.90;;;;;;5117168;27;20165;-81
2022/11/30 02:28:07;;;;;;;63.63;27.65;;;6.30;99.90;;;;;;5135284;27;20097;-81
2022/11/30 02:30:38;;;;;;;69.88;26.60;;;6.60;99.90;;;;;;5134568;27;20059;-80
2022/11/30 02:33:17;;;;;;;66.90;28.67;;;7.30;99.90;;;;;;5117056;27;20050;-79
2022/11/30 02:35:46;;;;;;;76.53;30.00;;;6.40;99.90;;;;;;5117095;27;20120;-79
2022/11/30 02:38:13;;;;;;;63.47;27.67;;;7.50;99.90;;;;;;5116952;27;20399;-80
2022/11/30 02:40:39;;;;;;;70.35;27.90;;;6.40;99.90;;;;;;5135052;27;20077;-81
2022/11/30 02:43:06;;;;;;;71.07;30.80;;;7.30;99.90;;;;;;5116928;27;20479;-80
2022/11/30 02:45:34;;;;;;;62.90;25.08;;;6.40;99.90;;;;;;5116347;27;20047;-79
2022/11/30 02:48:11;;;;;;;73.97;26.20;;;6.90;99.90;;;;;;5134867;27;20051;-79
2022/11/30 02:50:57;;;;;;;104.63;28.27;;;6.10;99.90;;;;;;5134839;27;20066;-79
2022/11/30 02:53:24;;;;;;;85.97;28.40;;;5.80;99.90;;;;;;5134827;27;20093;-80
2022/11/30 02:55:50;;;;;;;70.55;28.67;;;5.80;99.90;;;;;;5116544;27;20054;-80
2022/11/30 02:58:16;;;;;;;94.38;28.20;;;6.20;99.90;;;;;;5099739;27;20051;-80
2022/11/30 03:00:42;;;;;;;84.38;29.25;;;6.50;99.90;;;;;;5099228;27;20391;-79
2022/11/30 03:03:08;;;;;;;86.93;30.75;;;6.40;99.90;;;;;;5116262;27;20047;-80
2022/11/30 03:05:33;;;;;;;102.57;32.10;;;6.50;99.90;;;;;;5116571;27;20495;-81
2022/11/30 03:07:59;;;;;;;72.90;28.42;;;6.90;99.90;;;;;;5116304;27;20641;-81
2022/11/30 03:10:25;;;;;;;80.03;29.35;;;6.20;99.90;;;;;;5134745;27;20139;-81
2022/11/30 03:12:50;;;;;;;79.32;29.88;;;7.20;99.90;;;;;;5134675;27;20061;-80
2022/11/30 03:15:16;;;;;;;79.45;29.83;;;6.10;99.90;;;;;;5115910;27;20399;-79
2022/11/30 03:17:42;;;;;;;75.70;30.55;;;7.00;99.90;;;;;;5133982;27;20129;-80
2022/11/30 03:20:08;;;;;;;70.50;28.98;;;6.00;99.90;;;;;;5116148;27;20070;-79
2022/11/30 03:22:34;;;;;;;78.07;29.83;;;6.00;99.90;;;;;;5116104;27;20043;-79
2022/11/30 03:24:59;;;;;;;96.00;32.97;;;6.00;99.90;;;;;;5099050;27;20394;-80
2022/11/30 03:27:25;;;;;;;79.70;32.00;;;6.00;99.90;;;;;;5099015;27;20112;-81
2022/11/30 03:29:51;;;;;;;81.57;32.15;;;7.10;99.90;;;;;;5114983;27;20059;-80
2022/11/30 03:32:18;;;;;;;85.78;33.58;;;6.10;99.90;;;;;;5098838;27;20047;-80
2022/11/30 03:34:43;;;;;;;88.38;32.83;;;6.40;99.90;;;;;;5115828;27;20073;-80
2022/11/30 03:37:09;;;;;;;97.35;33.70;;;6.50;99.90;;;;;;5115793;27;20122;-79
2022/11/30 03:39:34;;;;;;;95.22;36.65;;;7.50;99.90;;;;;;5115488;27;20467;-79
2022/11/30 03:42:00;;;;;;;93.07;35.67;;;6.20;99.90;;;;;;5115654;27;20137;-80
2022/11/30 03:44:26;;;;;;;99.32;35.13;;;7.80;99.90;;;;;;5133512;27;20089;-79
2022/11/30 03:46:51;;;;;;;81.30;31.83;;;7.10;99.90;;;;;;5115643;27;20047;-79
2022/11/30 03:49:17;;;;;;;89.15;32.28;;;6.60;99.90;;;;;;5133675;27;20471;-80
2022/11/30 03:51:43;;;;;;;86.38;32.75;;;7.50;99.90;;;;;;5115466;27;20058;-80
2022/11/30 03:54:08;;;;;;;72.13;31.60;;;6.30;99.90;;;;;;5133631;27;20042;-80
2022/11/30 03:56:34;;;;;;;82.38;32.50;;;7.70;99.90;;;;;;5115461;27;20390;-80
2022/11/30 03:59:00;;;;;;;96.10;33.72;;;7.50;99.90;;;;;;5098215;27;20053;-79
2022/11/30 04:01:26;;;;;;;70.15;31.77;;;7.50;99.90;;;;;;5115310;27;20046;-80
2022/11/30 04:03:53;;;;;;;77.43;31.20;;;7.30;99.90;;;;;;5133466;27;20086;-79
2022/11/30 04:06:19;;;;;;;88.22;34.10;;;6.70;99.90;;;;;;5133035;27;20495;-80
2022/11/30 04:08:45;;;;;;;87.65;33.60;;;7.80;99.90;;;;;;5132999;27;20808;-80
2022/11/30 04:11:11;;;;;;;86.05;35.85;;;6.70;99.90;;;;;;5114795;27;20058;-80
2022/11/30 04:13:38;;;;;;;79.82;32.90;;;6.40;99.90;;;;;;5133277;27;20184;-80
2022/11/30 04:16:05;;;;;;;89.10;36.10;;;7.40;99.90;;;;;;5114573;27;20047;-80
2022/11/30 04:18:32;;;;;;;93.10;37.45;;;6.60;99.90;;;;;;5115089;27;20129;-80
2022/11/30 04:20:59;;;;;;;88.28;38.22;;;7.70;99.90;;;;;;5133146;27;20062;-80
2022/11/30 04:23:28;;;;;;;88.20;36.65;;;8.30;99.90;;;;;;5114939;27;20134;-80
2022/11/30 04:25:55;;;;;;;77.07;34.97;;;6.80;99.90;;;;;;5114516;27;20054;-80
2022/11/30 04:28:20;;;;;;;84.57;35.05;;;7.50;99.90;;;;;;5132672;27;20046;-80
2022/11/30 04:30:46;;;;;;;90.82;35.03;;;6.80;99.90;;;;;;5114461;27;20392;-80
2022/11/30 04:33:14;;;;;;;91.32;36.03;;;7.30;99.90;;;;;;5097850;27;20058;-79
2022/11/30 04:35:44;;;;;;;93.72;35.28;;;8.40;99.90;;;;;;5114820;28;20460;-80
2022/11/30 04:38:09;;;;;;;103.93;36.10;;;7.50;99.90;;;;;;5114782;28;20142;-79
2022/11/30 04:40:39;;;;;;;102.38;38.97;;;7.00;99.90;;;;;;5132767;28;20126;-80
2022/11/30 04:43:05;;;;;;;101.75;37.10;;;6.90;99.90;;;;;;5114816;28;20082;-81
2022/11/30 04:45:30;;;;;;;78.80;33.83;;;6.80;99.90;;;;;;5114712;28;20478;-80
2022/11/30 04:47:56;;;;;;;85.18;35.17;;;6.90;99.90;;;;;;5114615;28;20051;-80
2022/11/30 04:50:22;;;;;;;90.70;33.70;;;7.90;99.90;;;;;;5114355;28;20130;-79
2022/11/30 04:52:48;;;;;;;90.57;34.70;;;6.70;99.90;;;;;;5114784;28;20054;-79
2022/11/30 04:55:16;;;;;;;91.03;35.65;;;7.90;99.90;;;;;;5097660;28;20043;-79
2022/11/30 04:57:41;;;;;;;85.18;35.33;;;6.60;99.90;;;;;;5132909;28;20452;-80
2022/11/30 05:00:08;;;;;;;95.95;35.72;;;7.80;99.90;;;;;;5114347;28;20047;-79
2022/11/30 05:02:34;;;;;;;85.45;34.75;;;6.60;99.90;;;;;;5114719;28;20368;-80
2022/11/30 05:05:00;;;;;;;98.22;34.95;;;7.00;99.90;;;;;;5132745;28;20051;-79
2022/11/30 05:07:25;;;;;;;86.38;34.45;;;7.50;99.90;;;;;;5114833;28;20040;-79
2022/11/30 05:09:51;;;;;;;84.90;34.47;;;6.70;99.90;;;;;;5114403;28;20054;-80
2022/11/30 05:12:16;;;;;;;81.07;33.88;;;6.80;99.90;;;;;;5114905;28;20051;-81
2022/11/30 05:14:42;;;;;;;75.18;32.50;;;7.00;99.90;;;;;;5132822;27;20047;-80
2022/11/30 05:17:08;;;;;;;67.63;30.50;;;6.60;99.90;;;;;;5132813;28;20051;-81
2022/11/30 05:19:33;;;;;;;84.32;32.97;;;7.30;99.90;;;;;;5132729;27;20050;-80
2022/11/30 05:21:59;;;;;;;77.72;32.42;;;6.80;99.90;;;;;;5114470;28;20043;-80
2022/11/30 05:24:25;;;;;;;77.90;34.47;;;7.30;99.90;;;;;;5114272;28;20050;-80
2022/11/30 05:26:50;;;;;;;78.20;32.97;;;6.30;99.90;;;;;;5114492;27;20051;-80
2022/11/30 05:29:16;;;;;;;79.20;32.65;;;6.60;99.90;;;;;;5135948;27;20054;-79
2022/11/30 05:31:41;;;;;;;79.07;32.63;;;6.50;99.90;;;;;;5136562;27;20051;-79
2022/11/30 05:34:07;;;;;;;79.80;33.10;;;6.30;99.90;;;;;;5118257;27;20124;-80
2022/11/30 05:36:33;;;;;;;85.45;34.22;;;7.90;99.90;;;;;;5136303;27;20050;-80
2022/11/30 05:38:58;;;;;;;79.38;33.65;;;6.40;99.90;;;;;;5117825;27;20138;-81
2022/11/30 05:41:24;;;;;;;90.95;35.92;;;8.10;99.90;;;;;;5136223;27;20483;-80
2022/11/30 05:43:50;;;;;;;86.25;35.95;;;7.50;99.90;;;;;;5118123;27;20055;-80
2022/11/30 05:46:15;;;;;;;79.45;33.80;;;6.30;99.90;;;;;;5118032;27;20043;-81
2022/11/30 05:48:41;;;;;;;86.85;35.47;;;6.80;99.90;;;;;;5117899;27;20047;-80
2022/11/30 05:51:10;;;;;;;91.80;35.00;;;6.00;99.90;;;;;;5117957;27;20086;-80
2022/11/30 05:53:36;;;;;;;97.78;36.85;;;7.00;99.90;;;;;;5117694;27;20035;-80
2022/11/30 05:56:08;;;;;;;113.90;39.05;;;7.00;99.90;;;;;;5117689;27;20041;-80
2022/11/30 05:58:34;;;;;;;107.85;37.95;;;6.60;99.90;;;;;;5135908;27;20155;-80
2022/11/30 06:01:00;;;;;;;94.78;36.53;;;6.70;99.90;;;;;;5117456;27;20444;-81
2022/11/30 06:03:28;;;;;;;115.10;37.40;;;7.80;99.90;;;;;;5135919;27;20047;-81
2022/11/30 06:05:54;;;;;;;100.47;38.15;;;6.80;99.90;;;;;;5117566;27;20058;-80
2022/11/30 06:08:20;;;;;;;105.18;38.55;;;6.90;99.90;;;;;;5135363;27;20043;-81
2022/11/30 06:10:46;;;;;;;95.55;36.00;;;8.00;99.90;;;;;;5135742;27;20070;-81
2022/11/30 06:13:11;;;;;;;128.02;40.65;;;6.70;99.90;;;;;;5100055;27;20142;-81
2022/11/30 06:15:38;;;;;;;105.50;38.80;;;6.70;99.90;;;;;;5135985;27;20139;-81
2022/11/30 06:18:05;;;;;;;113.60;38.60;;;6.80;99.90;;;;;;5100368;27;20058;-82
2022/11/30 06:20:31;;;;;;;111.00;36.65;;;7.00;99.90;;;;;;5117188;27;20080;-81
2022/11/30 06:22:57;;;;;;;119.30;39.58;;;8.00;99.90;;;;;;5116816;27;20043;-82
2022/11/30 06:25:24;;;;;;;109.32;37.20;;;7.60;99.90;;;;;;5117259;27;20487;-82
2022/11/30 06:27:50;;;;;;;112.93;38.35;;;6.90;99.90;;;;;;5135444;27;20043;-82
2022/11/30 06:30:16;;;;;;;99.10;36.30;;;7.70;99.90;;;;;;5135216;27;20062;-82
2022/11/30 06:32:50;;;;;;;107.75;37.92;;;6.50;99.90;;;;;;5116939;27;20047;-83
2022/11/30 06:35:16;;;;;;;95.45;32.58;;;7.20;99.90;;;;;;5117247;27;20101;-82
2022/11/30 06:37:42;;;;;;;;;;;6.90;99.90;;;;;;5121623;27;20131;-81
2022/11/30 06:40:09;;;;;;;86.97;33.10;;;7.90;99.90;;;;;;5120606;27;19927;-82
2022/11/30 06:42:36;;;;;;;92.97;31.98;;;6.70;99.90;;;;;;5117345;27;20046;-81
2022/11/30 06:45:02;;;;;;;85.88;32.45;;;6.80;99.90;;;;;;5116839;27;20141;-82
2022/11/30 06:47:28;;;;;;;77.68;29.77;;;6.60;99.90;;;;;;5100109;27;20140;-82
2022/11/30 06:49:53;;;;;;;80.97;30.95;;;7.20;99.90;;;;;;5099636;27;20483;-82
2022/11/30 06:52:19;;;;;;;78.47;32.40;;;6.90;99.90;;;;;;5116192;27;20051;-83
2022/11/30 06:54:45;;;;;;;71.55;30.80;;;6.70;99.90;;;;;;5116612;27;20040;-82
2022/11/30 06:57:11;;;;;;;77.28;31.70;;;6.90;99.90;;;;;;5116812;27;20043;-82
2022/11/30 06:59:41;;;;;;;76.95;30.10;;;7.50;99.90;;;;;;5116663;27;20447;-81
2022/11/30 07:02:12;;;;;;;77.32;30.33;;;7.30;99.90;;;;;;5116544;27;20047;-81
2022/11/30 07:04:38;;;;;;;63.65;29.55;;;6.90;99.90;;;;;;5116635;27;20043;-83
2022/11/30 07:07:06;;;;;;;67.78;29.23;;;6.70;99.90;;;;;;5134744;27;20096;-82
2022/11/30 07:09:32;;;;;;;75.78;30.50;;;7.60;99.90;;;;;;5116285;27;20406;-82
2022/11/30 07:11:58;;;;;;;69.97;30.08;;;6.70;99.90;;;;;;5116321;27;20409;-82
2022/11/30 07:14:24;;;;;;;76.07;30.70;;;6.90;99.90;;;;;;5116499;27;20047;-82
2022/11/30 07:16:50;;;;;;;71.15;28.88;;;7.50;99.90;;;;;;5115969;27;20095;-82
2022/11/30 07:19:16;;;;;;;74.95;29.48;;;8.10;99.90;;;;;;5134342;27;20043;-81
2022/11/30 07:21:42;;;;;;;74.60;30.45;;;6.50;99.90;;;;;;5134001;27;20395;-81
2022/11/30 07:26:54;;;;;;;63.63;29.45;;;6.50;99.90;;;;;;5116063;27;20097;-82
2022/11/30 07:29:20;;;;;;;70.95;28.73;;;6.50;99.90;;;;;;5098791;27;20082;-82
2022/11/30 07:31:50;;;;;;;63.75;29.02;;;7.00;99.90;;;;;;5134281;27;20059;-82
2022/11/30 07:34:16;;;;;;;66.57;29.58;;;6.80;99.90;;;;;;5129240;27;20065;-84
2022/11/30 07:36:41;;;;;;;73.78;28.88;;;7.70;99.90;;;;;;5098542;27;20483;-83
2022/11/30 07:39:07;;;;;;;64.13;28.27;;;7.70;99.90;;;;;;5121535;27;20039;-82
2022/11/30 07:41:33;;;;;;;62.42;28.70;;;7.50;99.90;;;;;;5135509;27;20116;-82
2022/11/30 07:43:58;;;;;;;65.47;28.30;;;7.90;99.90;;;;;;5134928;27;20056;-83
2022/11/30 07:46:24;;;;;;;69.90;32.00;;;6.80;99.90;;;;;;5135089;27;20039;-83
2022/11/30 07:48:50;;;;;;;58.83;28.23;;;6.50;99.90;;;;;;5135120;27;20467;-83
2022/11/30 07:51:18;;;;;;;58.42;28.80;;;6.80;99.90;;;;;;5133896;27;20051;-82
2022/11/30 07:53:44;;;;;;;60.17;28.17;;;7.70;99.90;;;;;;5135619;27;20047;-82
2022/11/30 07:56:12;;;;;;;62.75;28.75;;;6.60;99.90;;;;;;5135054;27;20356;-82
2022/11/30 07:58:40;;;;;;;61.65;28.65;;;6.40;99.90;;;;;;5117401;27;20207;-83
2022/11/30 08:01:17;;;;;;;58.63;28.27;;;6.80;99.90;;;;;;5133871;27;20050;-84
2022/11/30 08:03:43;;;;;;;61.22;27.40;;;8.10;99.90;;;;;;5114420;27;20039;-74
2022/11/30 08:06:11;;;;;;;57.75;26.85;;;6.40;99.90;;;;;;5129974;27;20058;-75
2022/11/30 08:08:41;;;;;;;60.20;29.10;;;7.20;99.90;;;;;;5132317;27;20043;-77
2022/11/30 08:11:09;;;;;;;62.13;28.08;;;7.10;99.90;;;;;;5114485;27;20055;-80
2022/11/30 08:13:35;;;;;;;59.67;28.63;;;7.00;99.90;;;;;;5115152;27;20129;-79
2022/11/30 08:16:06;;;;;;;61.17;27.73;;;7.90;99.90;;;;;;5115071;27;20042;-78
2022/11/30 08:18:32;;;;;;;66.43;28.58;;;6.50;99.90;;;;;;5114514;27;20047;-79
2022/11/30 08:21:00;;;;;;;61.20;27.20;;;6.60;99.90;;;;;;5115092;27;20199;-79
2022/11/30 08:23:30;;;;;;;67.47;27.98;;;6.60;99.90;;;;;;5114962;27;20047;-79
2022/11/30 08:26:12;;;;;;;63.42;27.90;;;6.70;99.90;;;;;;5115048;27;20043;-78
2022/11/30 08:28:38;;;;;;;67.47;28.83;;;6.70;99.90;;;;;;5115493;27;20051;-79
2022/11/30 08:31:05;;;;;;;;;;;8.50;99.90;;;;;;5112131;27;20054;-81
2022/11/30 08:33:31;;;;;;;57.85;26.70;;;6.70;99.90;;;;;;5125489;27;19919;-76
2022/11/30 08:36:08;;;;;;;59.17;27.75;;;6.70;99.90;;;;;;5153111;27;20102;-83
2022/11/30 08:38:34;;;;;;;61.42;27.63;;;6.50;99.90;;;;;;5119515;27;20054;-84
2022/11/30 08:41:01;;;;;;;53.47;26.15;;;7.00;99.90;;;;;;5134729;27;20050;-83
2022/11/30 08:43:27;;;;;;;64.60;28.17;;;7.20;99.90;;;;;;5135057;27;20482;-84
2022/11/30 08:45:53;;;;;;;65.15;28.40;;;6.70;99.90;;;;;;5118193;27;20078;-85
2022/11/30 08:48:19;;;;;;;65.05;27.23;;;8.40;99.90;;;;;;5133944;27;20086;-83
2022/11/30 08:50:44;;;;;;;61.22;27.85;;;6.80;99.90;;;;;;5135118;27;20046;-84
2022/11/30 08:53:10;;;;;;;56.25;24.48;;;6.70;99.90;;;;;;5135467;27;20042;-84
2022/11/30 08:55:35;;;;;;;58.15;26.92;;;6.60;99.90;;;;;;5114743;28;20043;-84
2022/11/30 08:58:01;;;;;;;55.83;25.60;;;7.40;99.90;;;;;;5097971;28;20513;-85
2022/11/30 09:00:27;;;;;;;52.97;26.90;;;6.60;99.90;;;;;;5114991;27;20493;-85
2022/11/30 09:02:52;;;;;;;59.60;27.58;;;7.60;99.90;;;;;;5084341;27;20123;-85
2022/11/30 09:05:18;;;;;;;59.13;26.55;;;6.60;99.90;;;;;;5101848;27;20051;-86
2022/11/30 09:07:44;;;;;;;60.60;25.73;;;6.80;99.90;;;;;;5101831;27;20122;-86
2022/11/30 09:10:10;;;;;;;60.85;28.02;;;7.60;99.90;;;;;;5118653;27;20474;-86
2022/11/30 09:12:37;;;;;;;56.80;26.40;;;6.90;99.90;;;;;;5118096;27;20483;-86
2022/11/30 09:15:05;;;;;;;65.18;28.17;;;7.30;99.90;;;;;;5118564;27;20414;-85
2022/11/30 09:17:30;;;;;;;70.75;28.13;;;6.70;99.90;;;;;;5118269;27;20137;-85
2022/11/30 09:19:56;;;;;;;80.18;30.58;;;7.60;99.90;;;;;;5118401;27;20137;-85
2022/11/30 09:22:22;;;;;;;67.35;29.25;;;7.00;99.90;;;;;;5084481;27;20047;-84
2022/11/30 09:24:48;;;;;;;71.10;29.45;;;7.00;99.90;;;;;;5118208;27;20039;-76
2022/11/30 09:27:13;;;;;;;69.13;29.83;;;7.00;99.90;;;;;;5117389;27;20062;-80
2022/11/30 09:29:39;;;;;;;75.47;30.40;;;6.90;99.90;;;;;;5114040;27;20064;-81
2022/11/30 09:32:05;;;;;;;67.60;28.63;;;7.20;99.90;;;;;;5097372;28;20116;-77
2022/11/30 09:34:31;;;;;;;68.78;28.52;;;7.20;99.90;;;;;;5114074;28;20047;-78
2022/11/30 09:36:57;;;;;;;68.80;27.83;;;7.00;99.90;;;;;;5114631;28;20617;-82
2022/11/30 09:39:22;;;;;;;78.05;29.58;;;7.00;99.90;;;;;;5115567;28;20058;-81
2022/11/30 09:42:19;;;;;;;70.05;27.88;;;7.10;99.90;;;;;;5113750;28;20440;-82
2022/11/30 09:44:57;;;;;;;77.07;29.02;;;6.90;99.90;;;;;;5113884;28;20048;-81
2022/11/30 09:48:04;;;;;;;70.57;28.85;;;6.70;99.90;;;;;;5113889;28;20060;-81
2022/11/30 09:50:39;;;;;;;72.57;28.65;;;6.80;99.90;;;;;;5024971;28;20144;-85
2022/11/30 09:53:12;;;;;;;71.70;30.23;;;7.00;99.90;;;;;;5114200;28;20051;-80
2022/11/30 09:55:42;;;;;;;76.95;29.60;;;8.00;99.90;;;;;;5115274;27;20044;-81
2022/11/30 09:58:27;;;;;;;72.72;31.08;;;6.90;99.90;;;;;;5139812;27;20090;-82
2022/11/30 10:00:52;;;;;;;74.40;29.27;;;7.10;99.90;;;;;;5141561;27;20054;-80
2022/11/30 10:03:22;;;;;;;76.82;29.80;;;7.80;99.90;;;;;;5118152;27;20055;-81
2022/11/30 10:06:14;;;;;;;80.03;31.05;;;7.10;99.90;;;;;;5118311;27;20055;-81
2022/11/30 10:08:45;;;;;;;74.85;30.30;;;7.40;99.90;;;;;;5112646;28;20146;-81
2022/11/30 10:11:30;;;;;;;81.38;32.35;;;7.10;99.90;;;;;;5096129;28;20496;-81
2022/11/30 10:13:59;;;;;;;78.30;32.47;;;7.00;99.90;;;;;;5113806;27;20392;-79
2022/11/30 10:16:49;;;;;;;81.85;32.53;;;7.80;99.90;;;;;;5134441;27;20058;-82
2022/11/30 10:19:43;;;;;;;70.82;31.50;;;7.30;99.90;;;;;;5133660;27;20054;-81
2022/11/30 10:22:51;;;;;;;78.07;33.17;;;7.30;99.90;;;;;;5134246;27;20399;-80
2022/11/30 10:25:42;;;;;;;70.85;31.48;;;7.10;99.90;;;;;;5133061;27;20868;-80
2022/11/30 10:28:20;;;;;;;71.00;31.95;;;7.00;99.90;;;;;;5088899;27;20051;-78
2022/11/30 10:30:47;;;;;;;68.38;30.63;;;7.10;99.90;;;;;;5133299;27;20051;-83
2022/11/30 10:33:19;;;;;;;67.82;30.42;;;7.00;99.90;;;;;;5133597;27;20062;-83
2022/11/30 10:35:52;;;;;;;69.45;31.23;;;7.30;99.90;;;;;;5134765;27;20043;-81
2022/11/30 10:38:17;;;;;;;69.88;30.88;;;7.00;99.90;;;;;;5133868;27;20475;-79
2022/11/30 10:40:56;;;;;;;69.30;30.45;;;6.90;99.90;;;;;;5133031;27;20055;-84
2022/11/30 10:43:46;;;;;;;70.10;31.67;;;7.50;99.90;;;;;;5133616;27;20122;-84
2022/11/30 10:46:22;;;;;;;72.68;32.97;;;6.90;99.90;;;;;;5134681;27;20085;-81
2022/11/30 10:49:11;;;;;;;71.40;32.10;;;7.00;99.90;;;;;;5133528;27;20043;-77
2022/11/30 10:51:41;;;;;;;69.45;31.23;;;7.10;99.90;;;;;;5133844;27;20051;-76
2022/11/30 10:54:15;;;;;;;69.55;30.92;;;8.10;99.90;;;;;;5132957;27;20126;-83
2022/11/30 10:56:41;;;;;;;70.22;30.40;;;8.20;99.90;;;;;;5133653;27;20046;-80
2022/11/30 10:59:23;;;;;;;68.78;30.42;;;6.70;99.90;;;;;;5098925;27;20099;-79
2022/11/30 11:01:50;;;;;;;68.95;32.00;;;6.90;99.90;;;;;;5132558;27;20126;-75
2022/11/30 11:04:21;;;;;;;73.43;32.30;;;7.10;99.90;;;;;;5110860;28;20086;-79
2022/11/30 11:07:08;;;;;;;69.18;31.73;;;7.00;99.90;;;;;;5113747;28;20562;-79
2022/11/30 11:09:39;;;;;;;70.20;32.28;;;7.10;99.90;;;;;;5109737;28;20096;-79
2022/11/30 11:12:13;;;;;;;63.42;30.13;;;7.00;99.90;;;;;;5095222;28;20040;-81
2022/11/30 11:14:39;;;;;;;63.58;30.83;;;7.10;99.90;;;;;;5111718;28;20044;-80
2022/11/30 11:17:24;;;;;;;68.47;31.02;;;7.70;99.90;;;;;;5112332;28;20138;-80
2022/11/30 11:19:51;;;;;;;65.88;31.52;;;7.20;99.90;;;;;;5095026;28;20040;-76
2022/11/30 11:22:22;;;;;;;66.63;31.40;;;6.90;99.90;;;;;;5106895;28;20372;-78
2022/11/30 11:24:52;;;;;;;67.13;30.73;;;7.30;99.90;;;;;;5111022;28;20124;-79
2022/11/30 11:27:32;;;;;;;69.63;32.88;;;7.50;99.90;;;;;;5111958;28;20063;-75
2022/11/30 11:30:03;;;;;;;68.03;33.08;;;7.20;99.90;;;;;;5111579;27;20489;-76
2022/11/30 11:32:29;;;;;;;69.35;32.13;;;7.10;99.90;;;;;;5111834;27;20559;-80
2022/11/30 11:34:56;;;;;;;73.90;33.40;;;8.30;99.90;;;;;;5106922;27;20589;-80
2022/11/30 11:37:36;;;;;;;78.82;34.10;;;8.20;99.90;;;;;;5110838;27;20112;-79
2022/11/30 11:40:10;;;;;;;70.38;32.60;;;7.60;99.90;;;;;;5119153;27;20051;-80
2022/11/30 11:42:58;;;;;;;68.03;30.88;;;7.60;99.90;;;;;;5132670;27;20139;-79
2022/11/30 11:45:31;;;;;;;70.07;33.90;;;8.50;99.90;;;;;;5133022;27;20059;-78
2022/11/30 11:48:01;;;;;;;66.97;32.90;;;7.20;99.90;;;;;;5132160;27;20347;-78
2022/11/30 11:50:30;;;;;;;68.35;32.25;;;8.20;99.90;;;;;;5132301;27;20088;-79
2022/11/30 11:53:21;;;;;;;69.05;32.15;;;7.80;99.90;;;;;;5133038;27;20042;-79
2022/11/30 11:55:50;;;;;;;69.32;32.70;;;7.50;99.90;;;;;;5132286;27;20043;-79
2022/11/30 11:58:26;;;;;;;72.07;33.53;;;7.30;99.90;;;;;;5131914;27;20050;-79
2022/11/30 12:00:54;;;;;;;68.07;31.55;;;8.20;99.90;;;;;;5133045;27;20051;-81
2022/11/30 12:03:55;;;;;;;67.72;33.15;;;7.50;99.90;;;;;;5133456;27;20047;-80
2022/11/30 12:06:22;;;;;;;71.45;32.17;;;8.60;99.90;;;;;;5133486;27;20047;-79
2022/11/30 12:09:00;;;;;;;63.83;31.13;;;7.40;99.90;;;;;;5133192;27;20035;-79
2022/11/30 12:11:41;;;;;;;63.97;30.75;;;7.50;99.90;;;;;;5133140;27;20047;-79
2022/11/30 12:14:15;;;;;;;67.50;32.17;;;7.50;99.90;;;;;;5133345;27;20566;-79
2022/11/30 12:16:58;;;;;;;64.45;31.15;;;7.30;99.90;;;;;;5133369;27;20053;-80
2022/11/30 12:19:35;;;;;;;59.25;30.75;;;7.90;99.90;;;;;;5133174;27;20079;-78
2022/11/30 12:22:24;;;;;;;67.05;32.45;;;9.40;99.90;;;;;;5132189;27;20059;-79
2022/11/30 12:24:50;;;;;;;61.05;30.52;;;7.70;99.90;;;;;;5132857;27;20054;-79
2022/11/30 12:27:42;;;;;;;60.53;31.30;;;7.60;99.90;;;;;;5132032;27;20050;-79
2022/11/30 12:30:30;;;;;;;59.97;31.02;;;7.60;99.90;;;;;;5140485;27;20059;-79
2022/11/30 12:32:56;;;;;;;59.75;31.65;;;9.00;99.90;;;;;;5135493;27;20062;-78
2022/11/30 12:35:43;;;;;;;59.65;32.08;;;7.50;99.90;;;;;;5135391;27;20046;-81
2022/11/30 12:38:13;;;;;;;;;;;7.60;99.90;;;;;;5153853;27;20482;-80
2022/11/30 12:41:33;;;;;;;64.20;32.40;;;8.90;99.90;;;;;;5135048;27;19923;-79
2022/11/30 12:44:10;;;;;;;67.45;32.08;;;7.30;99.90;;;;;;5049449;28;20583;-79
2022/11/30 12:47:08;;;;;;;68.22;32.92;;;7.60;99.90;;;;;;5112947;27;20047;-70
2022/11/30 12:49:41;;;;;;;64.20;32.08;;;7.50;99.90;;;;;;5151595;27;20070;-71
2022/11/30 12:52:26;;;;;;;65.43;33.00;;;7.60;99.90;;;;;;5152444;27;20046;-70
2022/11/30 12:55:03;;;;;;;65.63;31.80;;;7.70;99.90;;;;;;5150128;27;20055;-77